Avinger, Texas
Current Conditions -  °F | °C
As of 9:35 AM on Friday 19 Dec 2014 (Local Time) from KOSA Reporting Station
Overcast Overcast  
Wind Chill: 45°   Ceiling: 500
Heat Index: 45°   Visibility: 3mi
Dew Point: 44°   Wind: 3mph
Humidity: 97%   Direction: 60°ENE
Pressure: 30.25"   Gusts: NA
Location:  32.9°N, 94.56°W
Report Text: KOSA 191535Z AUTO 06003KT 3SM OVC005 07/07 A3025 RMK AO1 P0001 T00700066
Loading
Personal Weather Stations






























Interactive Weather Map New forecast layout! Learn more

10-Day Weather Forecast

Advertisements
Track Severe Weather on mobile